createdAt,value
2018-12-11T00:00:11.587Z,100168.91
2018-12-11T00:01:17.514Z,100171.12
2018-12-11T00:02:22.912Z,100170.92
2018-12-11T00:03:28.509Z,100173.14
2018-12-11T00:04:34.685Z,100171.41
2018-12-11T00:05:40.347Z,100168.89
2018-12-11T00:06:45.985Z,100164.48
2018-12-11T00:07:51.652Z,100169.63
2018-12-11T00:08:57.316Z,100172.45
2018-12-11T00:10:03.001Z,100164.37
2018-12-11T00:11:08.631Z,100163.76
2018-12-11T00:12:14.335Z,100163.14
2018-12-11T00:13:21.028Z,100163.25
2018-12-11T00:14:26.655Z,100158.36
2018-12-11T00:15:31.675Z,100158.44
2018-12-11T00:16:37.318Z,100159.23
2018-12-11T00:17:42.953Z,100165.34
2018-12-11T00:18:48.537Z,100169.70
2018-12-11T00:19:54.234Z,100160.79
2018-12-11T00:20:59.840Z,100164.72
2018-12-11T00:22:05.476Z,100166.00
2018-12-11T00:23:11.157Z,100160.50
2018-12-11T00:24:16.805Z,100160.06
2018-12-11T00:25:22.501Z,100163.52
2018-12-11T00:26:28.313Z,100161.30
2018-12-11T00:27:33.946Z,100157.28
2018-12-11T00:28:39.585Z,100162.90
2018-12-11T00:29:45.193Z,100161.19
2018-12-11T00:30:50.820Z,100163.42
2018-12-11T00:31:56.432Z,100159.31
2018-12-11T00:33:02.048Z,100163.98
2018-12-11T00:34:07.682Z,100161.74
2018-12-11T00:35:13.320Z,100175.32
2018-12-11T00:36:18.919Z,100168.25
2018-12-11T00:37:24.517Z,100165.84
2018-12-11T00:38:30.540Z,100172.07
2018-12-11T00:39:36.365Z,100159.27
2018-12-11T00:40:42.013Z,100159.04
2018-12-11T00:41:47.606Z,100167.27
2018-12-11T00:42:53.252Z,100160.00
2018-12-11T00:43:58.865Z,100165.33
2018-12-11T00:45:03.807Z,100161.89
2018-12-11T00:46:09.450Z,100166.84
2018-12-11T00:47:15.135Z,100165.91
2018-12-11T00:48:20.748Z,100167.78
2018-12-11T00:49:26.348Z,100164.88
2018-12-11T00:50:31.975Z,100167.70
2018-12-11T00:51:38.645Z,100159.92
2018-12-11T00:52:44.326Z,100161.34
2018-12-11T00:53:49.972Z,100163.59
2018-12-11T00:54:55.576Z,100175.87
2018-12-11T00:56:01.229Z,100158.33
2018-12-11T00:57:06.861Z,100168.20
2018-12-11T00:58:12.472Z,100164.73
2018-12-11T00:59:18.133Z,100164.84
2018-12-11T01:00:23.796Z,100161.16
2018-12-11T01:01:29.471Z,100167.06
2018-12-11T01:02:34.468Z,100155.48
2018-12-11T01:03:40.456Z,100171.16
2018-12-11T01:04:46.176Z,100158.73
2018-12-11T01:05:51.864Z,100153.89
2018-12-11T01:06:57.469Z,100156.41
2018-12-11T01:08:03.072Z,100154.45
2018-12-11T01:09:08.001Z,100151.94
2018-12-11T01:10:13.676Z,100167.03
2018-12-11T01:11:19.340Z,100163.27
2018-12-11T01:12:24.960Z,100163.78
2018-12-11T01:13:30.590Z,100157.16
2018-12-11T01:14:36.197Z,100162.48
2018-12-11T01:15:41.848Z,100173.44
2018-12-11T01:16:48.149Z,100160.48
2018-12-11T01:17:53.751Z,100164.15
2018-12-11T01:18:59.392Z,100167.51
2018-12-11T01:20:04.340Z,100162.64
2018-12-11T01:21:10.017Z,100161.27
2018-12-11T01:22:15.696Z,100164.13
2018-12-11T01:23:21.375Z,100172.45
2018-12-11T01:24:27.090Z,100169.77
2018-12-11T01:25:32.748Z,100168.27
2018-12-11T01:26:38.368Z,100175.13
2018-12-11T01:27:43.996Z,100166.89
2018-12-11T01:28:49.581Z,100166.86
2018-12-11T01:29:55.803Z,100162.61
2018-12-11T01:31:01.517Z,100166.72
2018-12-11T01:32:07.140Z,100161.27
2018-12-11T01:33:12.760Z,100164.93
2018-12-11T01:34:18.393Z,100162.92
2018-12-11T01:35:24.073Z,100169.20
2018-12-11T01:36:29.716Z,100172.81
2018-12-11T01:37:35.328Z,100165.72
2018-12-11T01:38:40.952Z,100163.98
2018-12-11T01:39:46.622Z,100168.69
2018-12-11T01:40:52.271Z,100170.98
2018-12-11T01:41:58.078Z,100161.99
2018-12-11T01:43:03.836Z,100166.30
2018-12-11T01:44:09.476Z,100162.27
2018-12-11T01:45:15.231Z,100166.95
2018-12-11T01:46:21.224Z,100174.44
2018-12-11T01:47:26.856Z,100175.31
2018-12-11T01:48:32.472Z,100179.72
2018-12-11T01:49:38.073Z,100166.80
2018-12-11T01:50:43.660Z,100174.22
2018-12-11T01:51:49.340Z,100170.06
2018-12-11T01:52:54.956Z,100170.83
2018-12-11T01:54:00.655Z,100171.56
2018-12-11T01:55:06.267Z,100172.66
2018-12-11T01:56:12.084Z,100168.47
2018-12-11T01:57:17.663Z,100165.59
2018-12-11T01:58:23.248Z,100170.84
2018-12-11T01:59:28.933Z,100164.50
2018-12-11T02:00:34.565Z,100167.08
2018-12-11T02:01:39.206Z,100171.05
2018-12-11T02:02:43.866Z,100174.41
2018-12-11T02:03:48.474Z,100173.94
2018-12-11T02:04:53.078Z,100152.91
2018-12-11T02:05:57.722Z,100172.80
2018-12-11T02:07:02.381Z,100171.33
2018-12-11T02:08:07.028Z,100170.59
2018-12-11T02:09:11.662Z,100163.73
2018-12-11T02:10:17.350Z,100175.70
2018-12-11T02:11:23.037Z,100168.89
2018-12-11T02:12:28.741Z,100165.43
2018-12-11T02:13:34.354Z,100169.28
2018-12-11T02:14:40.027Z,100174.92
2018-12-11T02:15:45.624Z,100165.44
2018-12-11T02:16:51.281Z,100171.83
2018-12-11T02:17:56.884Z,100175.20
2018-12-11T02:19:02.506Z,100172.02
2018-12-11T02:20:07.449Z,100167.41
2018-12-11T02:21:13.101Z,100172.09
2018-12-11T02:22:18.690Z,100177.38
2018-12-11T02:23:24.312Z,100178.17
2018-12-11T02:24:29.969Z,100172.07
2018-12-11T02:25:35.841Z,100169.05
2018-12-11T02:26:41.573Z,100169.58
2018-12-11T02:27:47.168Z,100178.67
2018-12-11T02:28:52.764Z,100171.51
2018-12-11T02:29:58.389Z,100175.73
2018-12-11T02:31:03.329Z,100168.28
2018-12-11T02:32:09.005Z,100183.70
2018-12-11T02:33:14.622Z,100170.00
2018-12-11T02:34:20.237Z,100167.24
2018-12-11T02:35:25.878Z,100171.64
2018-12-11T02:36:30.804Z,100184.33
2018-12-11T02:37:36.398Z,100182.23
2018-12-11T02:38:41.891Z,100170.66
2018-12-11T02:39:47.708Z,100173.42
2018-12-11T02:40:52.960Z,100187.03
2018-12-11T02:41:58.605Z,100165.23
2018-12-11T02:43:03.869Z,100170.30
2018-12-11T02:44:09.445Z,100181.90
2018-12-11T02:45:15.132Z,100169.13
2018-12-11T02:46:20.929Z,100176.59
2018-12-11T02:47:26.593Z,100171.41
2018-12-11T02:48:32.274Z,100172.33
2018-12-11T02:49:37.893Z,100169.75
2018-12-11T02:50:43.472Z,100163.07
2018-12-11T02:51:51.229Z,100171.92
2018-12-11T02:52:56.887Z,100167.23
2018-12-11T02:54:02.490Z,100172.63
2018-12-11T02:55:07.792Z,100174.45
2018-12-11T02:56:13.423Z,100175.73
2018-12-11T02:57:19.009Z,100165.95
2018-12-11T02:58:24.667Z,100175.80
2018-12-11T02:59:30.298Z,100169.67
2018-12-11T03:00:35.918Z,100174.89
2018-12-11T03:01:41.519Z,100173.64
2018-12-11T03:02:47.129Z,100174.77
2018-12-11T03:03:52.762Z,100180.23
2018-12-11T03:04:58.574Z,100181.45
2018-12-11T03:06:04.181Z,100174.34
2018-12-11T03:07:09.838Z,100162.23
2018-12-11T03:08:15.485Z,100174.30
2018-12-11T03:09:21.096Z,100171.83
2018-12-11T03:10:26.730Z,100177.39
2018-12-11T03:11:32.349Z,100172.17
2018-12-11T03:12:37.996Z,100164.30
2018-12-11T03:13:43.655Z,100174.69
2018-12-11T03:14:49.344Z,100178.41
2018-12-11T03:15:54.939Z,100185.45
2018-12-11T03:17:01.248Z,100178.10
2018-12-11T03:18:06.569Z,100183.70
2018-12-11T03:19:12.210Z,100175.23
2018-12-11T03:20:17.854Z,100186.83
2018-12-11T03:21:23.469Z,100176.09
2018-12-11T03:22:29.333Z,100174.16
2018-12-11T03:23:35.036Z,100184.03
2018-12-11T03:24:40.679Z,100177.48
2018-12-11T03:25:46.158Z,100181.14
2018-12-11T03:26:51.877Z,100182.41
2018-12-11T03:27:57.490Z,100190.92
2018-12-11T03:29:03.750Z,100176.27
2018-12-11T03:30:09.321Z,100189.81
2018-12-11T03:31:14.983Z,100189.95
2018-12-11T03:32:20.620Z,100190.29
2018-12-11T03:33:26.591Z,100177.89
2018-12-11T03:34:32.279Z,100183.91
2018-12-11T03:35:38.153Z,100190.03
2018-12-11T03:36:43.820Z,100191.34
2018-12-11T03:37:49.590Z,100185.03
2018-12-11T03:38:55.234Z,100182.56
2018-12-11T03:40:01.227Z,100185.13
2018-12-11T03:41:07.685Z,100183.36
2018-12-11T03:42:13.332Z,100186.69
2018-12-11T03:43:19.528Z,100216.14
2018-12-11T03:44:26.103Z,100199.45
2018-12-11T03:45:31.724Z,100202.61
2018-12-11T03:46:37.435Z,100190.49
2018-12-11T03:47:43.100Z,100191.97
2018-12-11T03:48:48.690Z,100195.57
2018-12-11T03:49:54.371Z,100188.20
2018-12-11T03:51:00.038Z,100197.61
2018-12-11T03:52:05.664Z,100190.13
2018-12-11T03:53:11.252Z,100201.05
2018-12-11T03:54:16.997Z,100188.31
2018-12-11T03:55:23.416Z,100193.77
2018-12-11T03:56:29.173Z,100198.38
2018-12-11T03:57:34.809Z,100195.98
2018-12-11T03:58:40.461Z,100205.49
2018-12-11T03:59:46.114Z,100191.03
2018-12-11T04:00:51.714Z,100198.91
2018-12-11T04:01:57.066Z,100193.69
2018-12-11T04:03:02.692Z,100192.30
2018-12-11T04:04:08.327Z,100202.42
2018-12-11T04:05:13.667Z,100188.16
2018-12-11T04:06:19.260Z,100197.41
2018-12-11T04:07:24.938Z,100197.09
2018-12-11T04:08:30.543Z,100201.92
2018-12-11T04:09:36.339Z,100192.84
2018-12-11T04:10:41.984Z,100194.80
2018-12-11T04:11:47.572Z,100201.66
2018-12-11T04:12:53.160Z,100192.84
2018-12-11T04:13:58.740Z,100197.31
2018-12-11T04:15:03.673Z,100199.92
2018-12-11T04:16:08.939Z,100194.20
2018-12-11T04:17:14.256Z,100201.08
2018-12-11T04:18:19.876Z,100201.35
2018-12-11T04:19:25.528Z,100191.52
2018-12-11T04:20:31.158Z,100214.33
2018-12-11T04:21:36.437Z,100194.64
2018-12-11T04:22:42.043Z,100201.43
2018-12-11T04:23:47.799Z,100201.48
2018-12-11T04:24:53.460Z,100207.13
2018-12-11T04:25:59.111Z,100199.52
2018-12-11T04:27:04.770Z,100210.23
2018-12-11T04:28:10.412Z,100195.63
2018-12-11T04:29:17.760Z,100188.77
2018-12-11T04:30:23.409Z,100201.12
2018-12-11T04:31:29.014Z,100193.34
2018-12-11T04:32:34.661Z,100197.97
2018-12-11T04:33:40.244Z,100190.66
2018-12-11T04:34:45.900Z,100197.14
2018-12-11T04:35:51.804Z,100199.66
2018-12-11T04:36:57.666Z,100195.75
2018-12-11T04:38:03.270Z,100204.42
2018-12-11T04:39:08.884Z,100201.34
2018-12-11T04:40:14.603Z,100199.39
2018-12-11T04:41:20.226Z,100204.86
2018-12-11T04:42:25.875Z,100202.78
2018-12-11T04:43:31.524Z,100204.11
2018-12-11T04:44:37.196Z,100201.30
2018-12-11T04:45:42.835Z,100195.88
2018-12-11T04:46:48.469Z,100200.27
2018-12-11T04:47:54.262Z,100200.88
2018-12-11T04:48:59.931Z,100216.04
2018-12-11T04:50:04.878Z,100210.33
2018-12-11T04:51:10.493Z,100211.13
2018-12-11T04:52:16.169Z,100209.80
2018-12-11T04:53:21.796Z,100212.44
2018-12-11T04:54:27.408Z,100208.59
2018-12-11T04:55:33.089Z,100213.55
2018-12-11T04:56:38.756Z,100213.19
2018-12-11T04:57:44.421Z,100206.63
2018-12-11T04:58:50.043Z,100216.59
2018-12-11T04:59:55.715Z,100223.34
2018-12-11T05:01:01.472Z,100229.75
2018-12-11T05:02:07.101Z,100214.41
2018-12-11T05:03:12.699Z,100214.83
2018-12-11T05:04:18.293Z,100223.17
2018-12-11T05:05:23.955Z,100222.24
2018-12-11T05:06:29.558Z,100219.12
2018-12-11T05:07:35.235Z,100214.79
2018-12-11T05:08:40.842Z,100221.50
2018-12-11T05:09:46.442Z,100219.21
2018-12-11T05:10:52.076Z,100211.92
2018-12-11T05:11:57.768Z,100217.71
2018-12-11T05:13:03.576Z,100218.99
2018-12-11T05:14:09.208Z,100204.61
2018-12-11T05:15:14.863Z,100214.13
2018-12-11T05:16:20.557Z,100225.16
2018-12-11T05:17:26.235Z,100220.13
2018-12-11T05:18:31.894Z,100232.38
2018-12-11T05:19:38.121Z,100227.68
2018-12-11T05:20:44.201Z,100227.97
2018-12-11T05:21:49.874Z,100235.67
2018-12-11T05:22:55.468Z,100231.08
2018-12-11T05:24:01.159Z,100230.80
2018-12-11T05:25:06.129Z,100228.77
2018-12-11T05:26:12.054Z,100234.86
2018-12-11T05:27:17.660Z,100235.59
2018-12-11T05:28:23.306Z,100232.61
2018-12-11T05:29:28.889Z,100230.48
2018-12-11T05:30:34.504Z,100229.12
2018-12-11T05:31:40.188Z,100231.66
2018-12-11T05:32:45.792Z,100230.17
2018-12-11T05:33:51.395Z,100231.48
2018-12-11T05:34:57.059Z,100234.19
2018-12-11T05:36:02.725Z,100228.06
2018-12-11T05:37:08.131Z,100242.42
2018-12-11T05:38:13.840Z,100238.96
2018-12-11T05:39:19.542Z,100241.21
2018-12-11T05:40:25.224Z,100236.52
2018-12-11T05:41:30.908Z,100234.78
2018-12-11T05:42:36.554Z,100227.24
2018-12-11T05:43:42.375Z,100236.59
2018-12-11T05:44:47.958Z,100248.86
2018-12-11T05:45:53.626Z,100237.13
2018-12-11T05:46:59.226Z,100236.34
2018-12-11T05:48:04.540Z,100234.96
2018-12-11T05:49:10.205Z,100237.84
2018-12-11T05:50:15.841Z,100239.14
2018-12-11T05:51:21.765Z,100235.64
2018-12-11T05:52:27.409Z,100233.73
2018-12-11T05:53:33.032Z,100239.52
2018-12-11T05:54:38.642Z,100237.91
2018-12-11T05:55:44.301Z,100236.45
2018-12-11T05:56:49.947Z,100236.89
2018-12-11T05:57:55.553Z,100232.97
2018-12-11T05:59:01.159Z,100237.94
2018-12-11T06:00:05.892Z,100236.06
2018-12-11T06:01:11.559Z,100227.77
2018-12-11T06:02:17.213Z,100232.50
2018-12-11T06:03:22.860Z,100240.60
2018-12-11T06:04:28.511Z,100239.82
2018-12-11T06:05:33.761Z,100240.09
2018-12-11T06:06:39.789Z,100244.86
2018-12-11T06:07:45.476Z,100239.31
2018-12-11T06:08:51.129Z,100245.95
2018-12-11T06:09:56.765Z,100247.98
2018-12-11T06:11:02.411Z,100239.03
2018-12-11T06:12:07.768Z,100247.17
2018-12-11T06:13:13.441Z,100241.75
2018-12-11T06:14:19.065Z,100238.55
2018-12-11T06:15:25.323Z,100245.58
2018-12-11T06:16:31.385Z,100243.28
2018-12-11T06:17:37.069Z,100244.06
2018-12-11T06:18:42.707Z,100239.31
2018-12-11T06:19:48.317Z,100241.47
2018-12-11T06:20:55.205Z,100243.45
2018-12-11T06:22:00.850Z,100243.39
2018-12-11T06:23:06.460Z,100237.77
2018-12-11T06:24:12.058Z,100253.26
2018-12-11T06:25:17.685Z,100245.13
2018-12-11T06:26:23.341Z,100244.92
2018-12-11T06:27:29.582Z,100242.93
2018-12-11T06:28:36.664Z,100244.73
2018-12-11T06:29:43.413Z,100228.60
2018-12-11T06:30:50.104Z,100249.25
2018-12-11T06:31:56.894Z,100245.64
2018-12-11T06:33:03.523Z,100257.16
2018-12-11T06:34:10.061Z,100254.49
2018-12-11T06:35:16.586Z,100239.31
2018-12-11T06:36:23.194Z,100263.34
2018-12-11T06:37:29.920Z,100258.39
2018-12-11T06:38:36.694Z,100252.48
2018-12-11T06:39:43.260Z,100256.63
2018-12-11T06:40:50.928Z,100262.28
2018-12-11T06:41:57.660Z,100251.42
2018-12-11T06:43:04.826Z,100265.83
2018-12-11T06:44:11.740Z,100269.06
2018-12-11T06:45:19.043Z,100256.30
2018-12-11T06:46:25.566Z,100253.19
2018-12-11T06:47:31.873Z,100263.09
2018-12-11T06:48:38.829Z,100264.09
2018-12-11T06:49:45.341Z,100259.78
2018-12-11T06:50:53.208Z,100259.33
2018-12-11T06:52:00.028Z,100267.40
2018-12-11T06:53:06.741Z,100259.69
2018-12-11T06:54:13.531Z,100259.48
2018-12-11T06:55:20.135Z,100262.54
2018-12-11T06:56:26.868Z,100272.77
2018-12-11T06:57:35.093Z,100268.75
2018-12-11T06:58:42.532Z,100269.55
2018-12-11T06:59:49.273Z,100264.22
2018-12-11T07:00:56.453Z,100265.22
2018-12-11T07:02:03.803Z,100261.47
2018-12-11T07:03:12.083Z,100265.20
2018-12-11T07:04:18.659Z,100266.61
2018-12-11T07:05:25.745Z,100276.58
2018-12-11T07:06:32.451Z,100268.55
2018-12-11T07:07:39.411Z,100259.48
2018-12-11T07:08:46.223Z,100285.17
2018-12-11T07:09:53.107Z,100276.64
2018-12-11T07:11:00.218Z,100274.16
2018-12-11T07:12:06.512Z,100278.31
2018-12-11T07:13:13.162Z,100276.84
2018-12-11T07:14:19.938Z,100280.59
2018-12-11T07:15:26.591Z,100288.75
2018-12-11T07:16:33.305Z,100282.30
2018-12-11T07:17:40.458Z,100281.53
2018-12-11T07:18:47.450Z,100285.18
2018-12-11T07:19:55.015Z,100293.25
2018-12-11T07:21:01.709Z,100283.28
2018-12-11T07:22:07.911Z,100292.48
2018-12-11T07:23:13.604Z,100277.97
2018-12-11T07:24:19.284Z,100289.96
2018-12-11T07:25:24.907Z,100287.94
2018-12-11T07:26:30.511Z,100294.77
2018-12-11T07:27:37.922Z,100286.22
2018-12-11T07:28:43.812Z,100289.48
2018-12-11T07:29:49.876Z,100291.25
2018-12-11T07:30:56.459Z,100290.91
2018-12-11T07:32:02.213Z,100286.10
2018-12-11T07:33:07.905Z,100288.41
2018-12-11T07:34:13.512Z,100298.10
2018-12-11T07:35:19.135Z,100287.95
2018-12-11T07:36:24.410Z,100293.20
2018-12-11T07:37:30.053Z,100291.16
2018-12-11T07:38:35.673Z,100294.65
2018-12-11T07:39:40.985Z,100296.62
2018-12-11T07:40:46.602Z,100292.45
2018-12-11T07:41:52.210Z,100298.70
2018-12-11T07:42:57.868Z,100288.73
2018-12-11T07:44:03.112Z,100295.56
2018-12-11T07:45:08.407Z,100285.78
2018-12-11T07:46:14.000Z,100297.40
2018-12-11T07:47:19.611Z,100302.97
2018-12-11T07:48:25.650Z,100307.77
2018-12-11T07:49:31.298Z,100303.45
2018-12-11T07:50:36.902Z,100306.26
2018-12-11T07:51:42.524Z,100310.00
2018-12-11T07:52:48.136Z,100299.67
2018-12-11T07:53:53.761Z,100302.53
2018-12-11T07:54:59.409Z,100311.72
2018-12-11T07:56:05.066Z,100293.48
2018-12-11T07:57:10.733Z,100303.19
2018-12-11T07:58:16.348Z,100308.17
2018-12-11T07:59:21.989Z,100304.05
2018-12-11T08:00:27.645Z,100305.70
2018-12-11T08:01:34.255Z,100308.39
2018-12-11T08:02:39.913Z,100320.80
2018-12-11T08:03:45.484Z,100302.14
2018-12-11T08:04:51.112Z,100322.00
2018-12-11T08:05:56.712Z,100320.66
2018-12-11T08:07:02.384Z,100322.08
2018-12-11T08:08:07.772Z,100320.93
2018-12-11T08:09:13.366Z,100330.48
2018-12-11T08:10:19.004Z,100323.42
2018-12-11T08:11:24.264Z,100324.02
2018-12-11T08:12:29.934Z,100326.62
2018-12-11T08:13:35.669Z,100328.58
2018-12-11T08:14:41.331Z,100326.86
2018-12-11T08:15:46.952Z,100345.28
2018-12-11T08:16:52.611Z,100339.28
2018-12-11T08:17:58.228Z,100330.68
2018-12-11T08:19:03.607Z,100326.70
2018-12-11T08:20:08.514Z,100334.52
2018-12-11T08:21:14.126Z,100321.86
2018-12-11T08:22:19.794Z,100331.67
2018-12-11T08:23:25.692Z,100331.98
2018-12-11T08:24:31.288Z,100331.91
2018-12-11T08:25:37.262Z,100334.95
2018-12-11T08:26:42.889Z,100341.11
2018-12-11T08:27:48.549Z,100335.95
2018-12-11T08:28:54.225Z,100337.55
2018-12-11T08:29:59.819Z,100353.73
2018-12-11T08:31:05.101Z,100341.25
2018-12-11T08:32:10.745Z,100343.91
2018-12-11T08:33:16.352Z,100343.87
2018-12-11T08:34:21.946Z,100348.54
2018-12-11T08:35:27.597Z,100355.61
2018-12-11T08:36:33.276Z,100352.37
2018-12-11T08:37:38.904Z,100349.28
2018-12-11T08:38:44.556Z,100353.58
2018-12-11T08:39:50.512Z,100351.30
2018-12-11T08:40:56.125Z,100355.84
2018-12-11T08:42:01.786Z,100360.89
2018-12-11T08:43:07.498Z,100367.61
2018-12-11T08:44:13.121Z,100365.59
2018-12-11T08:45:18.807Z,100358.80
2018-12-11T08:46:24.496Z,100358.38
2018-12-11T08:47:30.166Z,100357.80
2018-12-11T08:48:35.802Z,100357.88
2018-12-11T08:49:41.437Z,100359.23
2018-12-11T08:50:47.323Z,100366.37
2018-12-11T08:51:53.091Z,100362.05
2018-12-11T08:52:58.705Z,100358.69
2018-12-11T08:54:04.336Z,100359.44
2018-12-11T08:55:09.944Z,100356.42
2018-12-11T08:56:15.610Z,100355.11
2018-12-11T08:57:21.257Z,100365.59
2018-12-11T08:58:26.906Z,100359.33
2018-12-11T08:59:32.551Z,100374.55
2018-12-11T09:00:38.197Z,100360.23
2018-12-11T09:01:43.817Z,100361.83
2018-12-11T09:02:49.564Z,100364.65
2018-12-11T09:03:55.141Z,100361.85
2018-12-11T09:05:00.766Z,100363.78
2018-12-11T09:06:06.409Z,100365.11
2018-12-11T09:07:12.039Z,100344.66
2018-12-11T09:08:17.668Z,100366.98
2018-12-11T09:09:23.272Z,100370.23
2018-12-11T09:10:28.917Z,100364.66
2018-12-11T09:11:34.549Z,100368.34
2018-12-11T09:12:40.241Z,100358.50
2018-12-11T09:13:45.872Z,100368.48
2018-12-11T09:14:51.498Z,100365.56
2018-12-11T09:15:57.086Z,100372.97
2018-12-11T09:17:09.898Z,100376.58
2018-12-11T09:18:08.816Z,100366.91
2018-12-11T09:19:14.639Z,100370.95
2018-12-11T09:20:20.657Z,100382.36
2018-12-11T09:21:26.903Z,100369.22
2018-12-11T09:22:32.540Z,100375.85
2018-12-11T09:23:38.139Z,100373.34
2018-12-11T09:24:43.776Z,100383.59
2018-12-11T09:25:49.385Z,100372.67
2018-12-11T09:26:55.025Z,100380.33
2018-12-11T09:28:00.697Z,100391.09
2018-12-11T09:29:06.330Z,100383.61
2018-12-11T09:30:12.262Z,100382.20
2018-12-11T09:31:17.921Z,100379.63
2018-12-11T09:32:23.568Z,100386.91
2018-12-11T09:33:29.214Z,100378.18
2018-12-11T09:34:34.846Z,100385.34
2018-12-11T09:35:40.424Z,100382.52
2018-12-11T09:36:46.005Z,100382.42
2018-12-11T09:37:51.654Z,100386.64
2018-12-11T09:38:57.256Z,100386.53
2018-12-11T09:40:02.844Z,100382.08
2018-12-11T09:41:08.467Z,100389.70
2018-12-11T09:42:14.114Z,100389.38
2018-12-11T09:43:20.035Z,100385.47
2018-12-11T09:44:25.630Z,100389.72
2018-12-11T09:45:31.221Z,100390.65
2018-12-11T09:46:36.840Z,100386.62
2018-12-11T09:47:42.488Z,100393.13
2018-12-11T09:48:48.133Z,100394.64
2018-12-11T09:49:53.816Z,100391.40
2018-12-11T09:50:59.447Z,100394.58
2018-12-11T09:52:05.702Z,100383.81
2018-12-11T09:53:13.030Z,100378.69
2018-12-11T09:54:19.557Z,100378.46
2018-12-11T09:55:26.359Z,100384.30
2018-12-11T09:56:32.430Z,100377.73
2018-12-11T09:57:39.376Z,100386.98
2018-12-11T09:58:46.858Z,100383.52
2018-12-11T09:59:53.070Z,100374.76
2018-12-11T10:00:58.956Z,100380.98
2018-12-11T10:02:04.610Z,100380.11
2018-12-11T10:03:14.552Z,100389.80
2018-12-11T10:04:21.011Z,100385.77
2018-12-11T10:05:27.285Z,100379.34
2018-12-11T10:06:34.191Z,100381.11
2018-12-11T10:07:40.959Z,100383.30
2018-12-11T10:08:47.271Z,100377.23
2018-12-11T10:09:53.262Z,100380.26
2018-12-11T10:11:02.037Z,100380.11
2018-12-11T10:12:08.936Z,100391.73
2018-12-11T10:13:15.285Z,100387.36
2018-12-11T10:14:23.112Z,100397.66
2018-12-11T10:15:29.320Z,100398.77
2018-12-11T10:16:35.033Z,100384.91
2018-12-11T10:17:41.889Z,100396.08
2018-12-11T10:18:48.860Z,100384.94
2018-12-11T10:19:55.476Z,100377.73
2018-12-11T10:21:01.616Z,100393.92
2018-12-11T10:22:08.363Z,100386.41
2018-12-11T10:23:15.752Z,100396.98
2018-12-11T10:24:22.833Z,100400.55
2018-12-11T10:25:29.032Z,100389.93
2018-12-11T10:26:35.943Z,100399.54
2018-12-11T10:27:42.434Z,100389.39
2018-12-11T10:28:48.265Z,100397.55
2018-12-11T10:29:54.982Z,100400.73
2018-12-11T10:31:03.560Z,100400.48
2018-12-11T10:32:10.191Z,100395.72
2018-12-11T10:33:16.668Z,100391.73
2018-12-11T10:34:26.223Z,100399.34
2018-12-11T10:35:33.008Z,100383.22
2018-12-11T10:36:39.650Z,100393.18
2018-12-11T10:37:45.907Z,100395.44
2018-12-11T10:38:52.122Z,100391.97
2018-12-11T10:39:58.923Z,100389.72
2018-12-11T10:41:05.544Z,100393.19
2018-12-11T10:42:12.238Z,100391.81
2018-12-11T10:43:20.001Z,100393.09
2018-12-11T10:44:28.498Z,100404.33
2018-12-11T10:45:35.522Z,100399.19
2018-12-11T10:46:41.717Z,100406.20
2018-12-11T10:47:48.916Z,100397.46
2018-12-11T10:48:57.259Z,100398.22
2018-12-11T10:50:02.934Z,100393.95
2018-12-11T10:51:08.557Z,100396.56
2018-12-11T10:52:15.517Z,100397.89
2018-12-11T10:53:22.664Z,100394.41
2018-12-11T10:54:29.505Z,100403.11
2018-12-11T10:55:36.151Z,100398.31
2018-12-11T10:56:43.218Z,100400.36
2018-12-11T10:57:50.509Z,100405.32
2018-12-11T10:58:56.955Z,100405.31
2018-12-11T11:00:02.272Z,100399.67
2018-12-11T11:01:14.004Z,100402.73
2018-12-11T11:02:24.443Z,100400.49
2018-12-11T11:03:32.196Z,100393.17
2018-12-11T11:04:38.884Z,100400.47
2018-12-11T11:05:46.173Z,100404.48
2018-12-11T11:06:52.993Z,100402.55
2018-12-11T11:07:59.966Z,100400.25
2018-12-11T11:09:05.684Z,100406.39
2018-12-11T11:10:11.444Z,100395.91
2018-12-11T11:11:17.488Z,100403.42
2018-12-11T11:12:24.389Z,100404.31
2018-12-11T11:13:31.898Z,100408.89
2018-12-11T11:14:38.547Z,100403.44
2018-12-11T11:15:45.952Z,100405.90
2018-12-11T11:16:53.123Z,100406.98
2018-12-11T11:18:02.392Z,100404.12
2018-12-11T11:19:08.964Z,100407.50
2018-12-11T11:20:16.865Z,100400.73
2018-12-11T11:21:24.532Z,100405.11
2018-12-11T11:22:31.181Z,100405.98
2018-12-11T11:23:37.635Z,100416.17
2018-12-11T11:24:44.521Z,100412.05
2018-12-11T11:25:51.918Z,100402.05
2018-12-11T11:26:59.251Z,100412.91
2018-12-11T11:28:08.477Z,100407.70
2018-12-11T11:29:14.823Z,100403.52
2018-12-11T11:30:21.294Z,100423.78
2018-12-11T11:31:29.079Z,100418.77
2018-12-11T11:32:35.903Z,100414.50
2018-12-11T11:33:42.883Z,100412.83
2018-12-11T11:34:49.361Z,100418.56
2018-12-11T11:35:56.029Z,100419.55
2018-12-11T11:37:01.651Z,100418.59
2018-12-11T11:38:07.303Z,100408.08
2018-12-11T11:39:12.912Z,100414.71
2018-12-11T11:40:18.530Z,100416.31
2018-12-11T11:41:24.175Z,100423.55
2018-12-11T11:42:29.796Z,100413.13
2018-12-11T11:43:35.476Z,100426.58
2018-12-11T11:44:40.968Z,100419.27
2018-12-11T11:45:47.623Z,100428.80
2018-12-11T11:46:53.624Z,100428.41
2018-12-11T11:47:59.433Z,100425.29
2018-12-11T11:49:05.139Z,100435.24
2018-12-11T11:50:10.023Z,100433.36
2018-12-11T11:51:15.736Z,100429.20
2018-12-11T11:52:21.617Z,100437.94
2018-12-11T11:53:27.778Z,100430.33
2018-12-11T11:54:33.482Z,100441.02
2018-12-11T11:55:39.408Z,100434.53
2018-12-11T11:56:45.679Z,100433.66
2018-12-11T11:57:51.823Z,100435.03
2018-12-11T11:58:57.922Z,100449.20
2018-12-11T12:00:03.783Z,100444.13
2018-12-11T12:01:09.268Z,100432.79
2018-12-11T12:02:15.040Z,100437.55
2018-12-11T12:03:20.742Z,100440.81
2018-12-11T12:04:26.844Z,100441.73
2018-12-11T12:05:33.675Z,100438.12
2018-12-11T12:06:40.110Z,100441.81
2018-12-11T12:07:47.907Z,100440.66
2018-12-11T12:08:59.192Z,100453.47
2018-12-11T12:09:59.335Z,100446.17
2018-12-11T12:11:04.635Z,100439.75
2018-12-11T12:12:10.261Z,100447.75
2018-12-11T12:13:15.912Z,100455.91
2018-12-11T12:14:21.528Z,100451.86
2018-12-11T12:15:27.169Z,100451.80
2018-12-11T12:16:32.798Z,100451.14
2018-12-11T12:17:38.428Z,100447.81
2018-12-11T12:18:44.093Z,100460.95
2018-12-11T12:19:49.786Z,100451.48
2018-12-11T12:20:55.428Z,100454.20
2018-12-11T12:22:01.081Z,100450.70
2018-12-11T12:23:06.810Z,100450.06
2018-12-11T12:24:12.544Z,100455.55
2018-12-11T12:25:18.171Z,100450.55
2018-12-11T12:26:23.780Z,100456.94
2018-12-11T12:27:29.165Z,100452.38
2018-12-11T12:28:34.881Z,100456.38
2018-12-11T12:29:40.797Z,100456.73
2018-12-11T12:30:46.463Z,100457.21
2018-12-11T12:31:52.182Z,100448.52